To NAV CANADA Home Page Login to a new session Search on AWWS site Feedback and Comments Disclaimer Vers la page française équivalente Tips FAQ What's new on the site To the Forecasts and Observations / NOTAM section To "File a Flight Plan" website Publications and other links Update of the User's profile FIC Telephone Numbers My Weather Data Folder Route Weather Data Regional Weather Data Local Weather Data To the Forecasts and Observations / NOTAM section
Request Generated 02/13/2016 at 14:57:09 UTC . Weather information available at that time is displayed.

METAR/TAF

THUNDER BAY/ON    

METAR CYQT 131400Z 25008KT 20SM FEW014 M26/M30 A3055 RMK SC1 SLP373
DENSITY ALT MISG=
METAR CYQT 131300Z 23008KT 20SM FEW014 M27/M31 A3054 RMK SC1 SLP370
DENSITY ALT MISG=
METAR CYQT 131200Z 24007KT 15SM SKC M27/M31 A3053 RMK SLP366 DENSITY
ALT MISG=

TAF CYQT 131340Z 1314/1402 25008KT P6SM SKC
BECMG 1400/1402 VRB03KT
RMK NXT FCST BY 132000Z=
Your time UTC time
Weather data provided by Environment Canada and NAV CANADA